Time;durP1;ratioP1;P1;durP2;ratioP2;P2;SDS_P1;SDS_P2;PMS_P1;PMS_P2;Temp;Humidity;BMP_temperature;BMP_pressure;BME280_temperature;BME280_humidity;BME280_pressure;Samples;Min_cycle;Max_cycle;Signal;HPM_P1;HPM_P2
2022/06/25 00:00:15;;;;;;;42.42;36.42;;;;;;;17.22;100.00;100806.66;2095586;28;22625;-70
2022/06/25 00:01:17;;;;;;;39.08;34.83;;;;;;;17.17;100.00;100806.94;2095287;28;24176;-70
2022/06/25 00:02:22;;;;;;;39.70;35.25;;;;;;;17.15;100.00;100811.50;2095885;28;20156;-71
2022/06/25 00:03:24;;;;;;;42.33;37.78;;;;;;;17.17;100.00;100808.72;2095928;28;23828;-71
2022/06/25 00:05:50;;;;;;;39.08;34.92;;;;;;;17.11;100.00;100809.94;2095147;28;27599;-71
2022/06/25 00:06:57;;;;;;;41.08;36.72;;;;;;;17.11;100.00;100815.34;2095740;28;23621;-71
2022/06/25 00:08:00;;;;;;;42.22;37.47;;;;;;;17.07;100.00;100805.66;2095914;28;27067;-71
2022/06/25 00:09:02;;;;;;;41.25;36.90;;;;;;;17.06;100.00;100806.59;2095432;28;36771;-71
2022/06/25 00:10:04;;;;;;;42.70;38.13;;;;;;;17.08;100.00;100810.09;2097136;28;30265;-70
2022/06/25 00:11:06;;;;;;;39.33;35.15;;;;;;;17.06;100.00;100813.84;2096016;28;20037;-71
2022/06/25 00:13:29;;;;;;;46.17;39.33;;;;;;;17.06;100.00;100814.72;2089723;28;20173;-71
2022/06/25 00:14:31;;;;;;;40.88;36.42;;;;;;;17.05;100.00;100814.78;2090249;28;25017;-71
2022/06/25 00:15:35;;;;;;;44.13;39.47;;;;;;;17.05;100.00;100818.38;2096153;28;37646;-70
2022/06/25 00:16:38;;;;;;;39.10;35.08;;;;;;;17.04;100.00;100816.63;2097867;28;20041;-71
2022/06/25 00:17:43;;;;;;;44.33;37.22;;;;;;;17.04;100.00;100811.22;2097432;28;20171;-71
2022/06/25 00:18:45;;;;;;;43.13;38.75;;;;;;;17.07;100.00;100812.91;2096081;28;26424;-71
2022/06/25 00:19:47;;;;;;;42.28;37.78;;;;;;;17.07;100.00;100827.28;2097570;28;20029;-71
2022/06/25 00:20:49;;;;;;;38.85;34.72;;;;;;;17.07;100.00;100819.16;2096776;28;28426;-71
2022/06/25 00:21:51;;;;;;;41.15;36.70;;;;;;;17.10;100.00;100823.53;2096728;28;38538;-71
2022/06/25 00:22:53;;;;;;;42.03;37.53;;;;;;;17.10;100.00;100819.03;2096961;28;20114;-71
2022/06/25 00:23:54;;;;;;;40.78;35.88;;;;;;;17.11;100.00;100812.63;2096611;28;23896;-71
2022/06/25 00:24:56;;;;;;;46.15;39.65;;;;;;;17.14;100.00;100820.59;2096429;28;28544;-71
2022/06/25 00:25:58;;;;;;;44.58;39.22;;;;;;;17.16;100.00;100821.41;2097449;28;20040;-71
2022/06/25 00:27:00;;;;;;;44.08;39.58;;;;;;;17.18;100.00;100824.88;2095841;28;27943;-71
2022/06/25 00:28:02;;;;;;;46.25;41.10;;;;;;;17.19;100.00;100831.16;2097728;28;20117;-71
2022/06/25 00:29:06;;;;;;;40.33;36.22;;;;;;;17.20;100.00;100832.06;2104629;28;20884;-71
2022/06/25 00:30:10;;;;;;;45.75;39.70;;;;;;;17.23;100.00;100831.88;2112829;28;20052;-71
2022/06/25 00:31:12;;;;;;;40.17;34.63;;;;;;;17.24;100.00;100830.94;2111979;28;20064;-71
2022/06/25 00:32:14;;;;;;;40.67;36.50;;;;;;;17.24;100.00;100831.81;2104490;28;20048;-71
2022/06/25 00:33:16;;;;;;;41.45;37.13;;;;;;;17.26;100.00;100832.59;2096782;28;20048;-71
2022/06/25 00:34:20;;;;;;;45.70;40.78;;;;;;;17.28;100.00;100835.22;2096247;28;20144;-71
2022/06/25 00:35:23;;;;;;;43.33;38.78;;;;;;;17.28;100.00;100828.00;2096470;28;23109;-71
2022/06/25 00:36:25;;;;;;;41.05;36.75;;;;;;;17.28;100.00;100824.41;2096151;28;26372;-71
2022/06/25 00:37:27;;;;;;;42.35;37.83;;;;;;;17.30;100.00;100827.91;2097333;28;20317;-71
2022/06/25 00:38:29;;;;;;;42.53;37.97;;;;;;;17.29;100.00;100823.47;2104659;28;23127;-71
2022/06/25 00:39:30;;;;;;;39.47;35.38;;;;;;;17.31;100.00;100826.94;2104660;28;20040;-71
2022/06/25 00:40:32;;;;;;;39.85;35.33;;;;;;;17.31;100.00;100832.38;2096824;28;23848;-71
2022/06/25 00:41:34;;;;;;;39.45;35.30;;;;;;;17.30;100.00;100828.78;2098339;28;23526;-71
2022/06/25 00:42:36;;;;;;;42.20;37.78;;;;;;;17.30;100.00;100833.31;2097429;28;20049;-71
2022/06/25 00:43:39;;;;;;;44.15;39.30;;;;;;;17.28;100.00;100836.13;2095883;28;20037;-72
2022/06/25 00:44:42;;;;;;;42.55;38.22;;;;;;;17.27;100.00;100830.78;2088184;28;20240;-71
2022/06/25 00:45:46;;;;;;;42.83;38.47;;;;;;;17.23;100.00;100832.78;2078553;28;22697;-71
2022/06/25 00:46:48;;;;;;;42.35;37.85;;;;;;;17.23;100.00;100837.28;2089272;28;20041;-71
2022/06/25 00:47:50;;;;;;;42.67;38.05;;;;;;;17.23;100.00;100830.06;2104196;28;20856;-71
2022/06/25 00:48:52;;;;;;;44.75;39.95;;;;;;;17.22;100.00;100833.72;2096030;28;29112;-71
2022/06/25 00:49:54;;;;;;;44.22;39.42;;;;;;;17.21;100.00;100836.50;2095816;28;20886;-71
2022/06/25 00:50:58;;;;;;;45.28;40.28;;;;;;;17.20;100.00;100832.94;2095808;28;38495;-71
2022/06/25 00:52:15;;;;;;;44.35;39.60;;;;;;;17.18;100.00;100829.44;2095625;28;20730;-71
2022/06/25 00:53:20;;;;;;;46.20;41.42;;;;;;;17.20;100.00;100832.06;2087702;28;20985;-71
2022/06/25 00:54:24;;;;;;;49.10;43.95;;;;;;;17.18;100.00;100833.00;2090135;28;20037;-71
2022/06/25 00:55:30;;;;;;;47.92;42.40;;;;;;;17.14;100.00;100839.53;2096047;28;20042;-71
2022/06/25 00:56:37;;;;;;;46.72;39.88;;;;;;;17.14;100.00;100834.13;2080754;28;20042;-70
2022/06/25 00:57:42;;;;;;;49.33;42.15;;;;;;;17.13;100.00;100837.78;2095921;28;31652;-71
2022/06/25 00:58:45;;;;;;;44.55;39.70;;;;;;;17.12;100.00;100843.25;2095613;28;26551;-71
2022/06/25 00:59:50;;;;;;;47.53;42.40;;;;;;;17.11;100.00;100838.81;2104734;28;20040;-71
2022/06/25 01:00:54;;;;;;;47.42;41.25;;;;;;;17.09;100.00;100847.03;2096801;28;20041;-71
2022/06/25 01:01:58;;;;;;;42.13;37.70;;;;;;;17.05;100.00;100842.72;2096228;28;20791;-71
2022/06/25 01:03:02;;;;;;;47.20;42.30;;;;;;;17.04;100.00;100842.81;2095660;28;20040;-71
2022/06/25 01:04:05;;;;;;;39.10;34.83;;;;;;;17.00;100.00;100849.34;2095972;28;20049;-71
2022/06/25 01:05:11;;;;;;;40.38;36.08;;;;;;;16.97;100.00;100847.66;2095250;28;32765;-71
2022/06/25 01:06:15;;;;;;;44.17;39.38;;;;;;;16.94;100.00;100848.69;2096325;28;20045;-70
2022/06/25 01:07:18;;;;;;;44.65;39.83;;;;;;;16.91;100.00;100847.97;2095585;28;26695;-71
2022/06/25 01:08:20;;;;;;;45.47;40.58;;;;;;;16.88;100.00;100845.41;2095630;28;25078;-71
2022/06/25 01:09:22;;;;;;;43.40;38.70;;;;;;;16.84;100.00;100841.13;2095251;28;20118;-71
2022/06/25 01:10:24;;;;;;;43.65;38.92;;;;;;;16.84;100.00;100842.00;2086811;28;24313;-71
2022/06/25 01:11:28;;;;;;;42.53;38.08;;;;;;;16.80;100.00;100845.78;2095183;28;27849;-71
2022/06/25 01:12:31;;;;;;;43.00;38.50;;;;;;;16.78;100.00;100842.28;2096371;28;20123;-71
2022/06/25 01:13:32;;;;;;;45.90;40.90;;;;;;;16.75;100.00;100843.28;2104009;28;22498;-71
2022/06/25 01:14:35;;;;;;;45.38;40.35;;;;;;;16.74;100.00;100846.97;2087056;28;20046;-71
2022/06/25 01:15:43;;;;;;;45.40;40.50;;;;;;;16.71;100.00;100841.69;2079596;28;20842;-71
2022/06/25 01:16:45;;;;;;;44.20;38.78;;;;;;;16.71;100.00;100844.41;2095963;28;20037;-71
2022/06/25 01:17:50;;;;;;;45.67;40.40;;;;;;;16.69;100.00;100843.63;2095907;28;20041;-71
2022/06/25 01:18:54;;;;;;;47.75;42.53;;;;;;;16.69;100.00;100849.03;2087736;28;20068;-71
2022/06/25 01:19:56;;;;;;;46.83;40.05;;;;;;;16.69;100.00;100849.03;2087393;28;20971;-71
2022/06/25 01:21:00;;;;;;;43.78;39.08;;;;;;;16.67;100.00;100845.53;2095836;28;20029;-71
2022/06/25 01:22:04;;;;;;;43.13;37.92;;;;;;;16.64;100.00;100851.06;2095988;28;20048;-70
2022/06/25 01:23:09;;;;;;;46.22;40.65;;;;;;;16.62;100.00;100855.69;2090042;28;20963;-71
2022/06/25 01:24:11;;;;;;;44.45;39.63;;;;;;;16.57;100.00;100844.22;2079989;28;20119;-71
2022/06/25 01:25:15;;;;;;;48.85;42.17;;;;;;;16.60;100.00;100855.75;2095619;28;20041;-71
2022/06/25 01:26:17;;;;;;;51.35;45.75;;;;;;;16.57;100.00;100855.91;2110660;28;21187;-71
2022/06/25 01:27:19;;;;;;;50.92;44.40;;;;;;;16.64;100.00;100855.63;2095654;28;20137;-71
2022/06/25 01:28:21;;;;;;;48.67;43.25;;;;;;;16.63;100.00;100849.31;2094978;28;32594;-71
2022/06/25 01:29:23;;;;;;;54.75;45.13;;;;;;;16.67;100.00;100852.72;2096378;28;30142;-71
2022/06/25 01:30:25;;;;;;;57.30;46.60;;;;;;;16.65;100.00;100858.22;2088154;28;20767;-71
2022/06/25 01:31:28;;;;;;;49.00;43.70;;;;;;;16.64;100.00;100859.19;2088408;28;20885;-71
2022/06/25 01:32:31;;;;;;;48.60;42.45;;;;;;;16.60;100.00;100855.75;2097306;28;20044;-71
2022/06/25 01:33:33;;;;;;;50.25;44.35;;;;;;;16.60;100.00;100860.28;2094947;28;20079;-71
2022/06/25 01:34:34;;;;;;;55.35;46.67;;;;;;;16.60;100.00;100858.47;2095385;28;23378;-71
2022/06/25 01:35:37;;;;;;;59.92;46.72;;;;;;;16.64;100.00;100856.47;2095594;28;20037;-71
2022/06/25 01:36:38;;;;;;;53.55;46.15;;;;;;;16.64;100.00;100867.28;2096128;28;20038;-71
2022/06/25 01:37:42;;;;;;;48.47;42.55;;;;;;;16.61;100.00;100860.19;2096152;28;20048;-71
2022/06/25 01:38:45;;;;;;;48.35;42.55;;;;;;;16.58;100.00;100862.16;2096275;28;20176;-71
2022/06/25 01:39:51;;;;;;;44.15;39.38;;;;;;;16.53;100.00;100859.72;2095875;28;20084;-71
2022/06/25 01:40:55;;;;;;;43.05;38.38;;;;;;;16.50;100.00;100862.56;2095702;28;20128;-71
2022/06/25 01:41:57;;;;;;;53.45;44.47;;;;;;;16.50;100.00;100864.41;2103137;28;20153;-71
2022/06/25 01:42:59;;;;;;;48.90;43.47;;;;;;;16.52;100.00;100863.34;2087389;28;20038;-71
2022/06/25 01:44:01;;;;;;;54.05;43.35;;;;;;;16.52;100.00;100873.31;2087497;28;20976;-71
2022/06/25 01:45:04;;;;;;;49.00;42.63;;;;;;;16.51;100.00;100874.22;2096453;28;20920;-71
2022/06/25 01:46:08;;;;;;;52.67;43.97;;;;;;;16.52;100.00;100868.75;2096152;28;20122;-71
2022/06/25 01:47:16;;;;;;;57.75;47.30;;;;;;;16.54;100.00;100877.66;2104406;28;20047;-71
2022/06/25 01:48:18;;;;;;;58.75;49.25;;;;;;;16.55;100.00;100870.44;2095369;28;20045;-71
2022/06/25 01:49:20;;;;;;;58.30;47.30;;;;;;;16.54;100.00;100874.09;2095268;28;20139;-71
2022/06/25 01:50:24;;;;;;;59.45;49.67;;;;;;;16.53;100.00;100872.34;2096366;28;20052;-71
2022/06/25 01:51:26;;;;;;;63.03;49.53;;;;;;;16.53;100.00;100880.47;2104073;28;20155;-71
2022/06/25 01:52:29;;;;;;;64.10;52.13;;;;;;;16.53;100.00;100880.47;2103992;28;21201;-71
2022/06/25 01:53:31;;;;;;;57.50;47.70;;;;;;;16.53;100.00;100872.34;2103958;28;20076;-71
2022/06/25 01:54:33;;;;;;;58.67;47.85;;;;;;;16.52;100.00;100878.69;2097510;28;20986;-71
2022/06/25 01:55:36;;;;;;;59.95;49.53;;;;;;;16.48;100.00;100877.09;2095632;28;20053;-71
2022/06/25 01:56:41;;;;;;;61.42;48.50;;;;;;;16.48;100.00;100877.09;2086436;28;20033;-72
2022/06/25 01:57:44;;;;;;;57.75;48.38;;;;;;;16.49;100.00;100881.53;2088092;28;20086;-71
2022/06/25 01:58:46;;;;;;;53.40;47.47;;;;;;;16.47;100.00;100878.91;2095045;28;20045;-71
2022/06/25 01:59:48;;;;;;;59.95;48.92;;;;;;;16.48;100.00;100883.38;2095297;28;20063;-71
2022/06/25 02:00:50;;;;;;;61.17;50.78;;;;;;;16.47;100.00;100875.34;2087378;28;20101;-71
2022/06/25 02:01:52;;;;;;;56.85;47.00;;;;;;;16.47;100.00;100875.34;2086474;28;20053;-71
2022/06/25 02:02:54;;;;;;;57.22;49.05;;;;;;;16.46;100.00;100884.41;2087456;28;20037;-71
2022/06/25 02:03:56;;;;;;;55.88;48.63;;;;;;;16.44;100.00;100881.78;2087352;28;20045;-72
2022/06/25 02:04:58;;;;;;;57.38;46.90;;;;;;;16.43;100.00;100882.72;2087587;28;20891;-71
2022/06/25 02:06:03;;;;;;;54.40;46.97;;;;;;;16.42;100.00;100881.84;2095908;28;20056;-71
2022/06/25 02:07:05;;;;;;;54.35;45.15;;;;;;;16.38;100.00;100874.84;2095624;28;20155;-71
2022/06/25 02:08:15;;;;;;;55.60;47.72;;;;;;;16.38;100.00;100882.97;2096049;28;20041;-71
2022/06/25 02:09:19;;;;;;;54.13;46.22;;;;;;;16.38;100.00;100879.38;2086772;28;20062;-71
2022/06/25 02:10:21;;;;;;;55.78;45.38;;;;;;;16.39;100.00;100890.09;2088472;28;20772;-71
2022/06/25 02:11:24;;;;;;;54.72;46.03;;;;;;;16.38;100.00;100882.97;2096155;28;20122;-71
2022/06/25 02:12:26;;;;;;;58.72;46.63;;;;;;;16.38;100.00;100877.56;2096555;28;20044;-71
2022/06/25 02:13:28;;;;;;;51.92;44.45;;;;;;;16.37;100.00;100881.19;2104156;28;20133;-71
2022/06/25 02:14:31;;;;;;;50.53;43.80;;;;;;;16.38;100.00;100885.66;2087020;28;20053;-71
2022/06/25 02:15:33;;;;;;;51.60;45.13;;;;;;;16.37;100.00;100880.34;2087570;28;20053;-70
2022/06/25 02:16:37;;;;;;;49.85;43.45;;;;;;;16.36;100.00;100882.13;2104578;28;20086;-71
2022/06/25 02:17:39;;;;;;;52.15;42.63;;;;;;;16.36;100.00;100887.53;2095078;28;20045;-71
2022/06/25 02:18:40;;;;;;;49.83;43.42;;;;;;;16.35;100.00;100877.69;2095485;28;26170;-71
2022/06/25 02:19:42;;;;;;;48.38;43.08;;;;;;;16.35;100.00;100883.09;2096497;28;20033;-71
2022/06/25 02:20:44;;;;;;;47.00;41.80;;;;;;;16.37;100.00;100878.50;2095672;28;23381;-71
2022/06/25 02:21:46;;;;;;;48.25;42.72;;;;;;;16.37;100.00;100889.31;2094850;28;20037;-71
2022/06/25 02:22:51;;;;;;;52.53;44.05;;;;;;;16.38;100.00;100882.97;2095546;28;20037;-71
2022/06/25 02:23:55;;;;;;;49.67;41.22;;;;;;;16.39;100.00;100887.41;2094881;28;20049;-71
2022/06/25 02:24:57;;;;;;;46.13;41.15;;;;;;;16.37;100.00;100869.53;2099298;28;20107;-71
2022/06/25 02:25:59;;;;;;;44.40;39.70;;;;;;;16.36;100.00;100876.72;2096527;28;20130;-71
2022/06/25 02:27:00;;;;;;;42.50;37.67;;;;;;;16.36;100.00;100882.13;2095847;28;21175;-71
2022/06/25 02:28:08;;;;;;;44.97;40.13;;;;;;;16.38;100.00;100874.84;2095018;28;20037;-70
2022/06/25 02:29:11;;;;;;;46.15;39.97;;;;;;;16.40;100.00;100881.06;2096171;28;20037;-70
2022/06/25 02:30:13;;;;;;;47.75;40.40;;;;;;;16.40;100.00;100881.06;2096886;28;20041;-71
2022/06/25 02:31:15;;;;;;;45.55;39.53;;;;;;;16.44;100.00;100878.19;2095581;28;27305;-71
2022/06/25 02:32:18;;;;;;;43.67;39.10;;;;;;;16.44;100.00;100880.88;2095665;28;20913;-71
2022/06/25 02:33:19;;;;;;;47.53;40.67;;;;;;;16.45;100.00;100871.84;2097208;28;20655;-71
2022/06/25 02:34:21;;;;;;;42.78;38.17;;;;;;;16.45;100.00;100871.84;2087622;28;20899;-71
2022/06/25 02:35:23;;;;;;;46.10;41.00;;;;;;;16.47;100.00;100875.34;2079337;28;20169;-71
2022/06/25 02:36:25;;;;;;;42.58;37.22;;;;;;;16.47;100.00;100880.75;2095592;28;20041;-71
2022/06/25 02:37:27;;;;;;;42.35;37.80;;;;;;;16.48;100.00;100877.09;2095798;28;20053;-71
2022/06/25 02:38:30;;;;;;;46.35;39.17;;;;;;;16.48;100.00;100869.00;2087449;28;20863;-71
2022/06/25 02:39:34;;;;;;;42.08;37.55;;;;;;;16.46;100.00;100869.06;2087639;28;20037;-71
2022/06/25 02:40:37;;;;;;;40.30;35.90;;;;;;;16.46;100.00;100868.22;2095487;28;20045;-71
2022/06/25 02:41:39;;;;;;;38.78;34.65;;;;;;;16.45;100.00;100871.84;2095798;28;20048;-71
2022/06/25 02:42:42;;;;;;;39.45;35.40;;;;;;;16.44;100.00;100878.19;2087362;28;20095;-71
2022/06/25 02:43:45;;;;;;;39.00;34.95;;;;;;;16.42;100.00;100873.75;2079900;28;20140;-70
2022/06/25 02:44:59;;;;;;;41.70;37.22;;;;;;;16.46;100.00;100879.00;2096015;28;20893;-71
2022/06/25 02:46:01;;;;;;;39.60;35.35;;;;;;;16.44;100.00;100879.09;2087496;28;21032;-71
2022/06/25 02:47:03;;;;;;;41.80;36.85;;;;;;;16.46;100.00;100879.00;2085814;28;32447;-71
2022/06/25 02:48:21;;;;;;;44.88;36.83;;;;;;;16.44;100.00;100876.38;2097695;28;20124;-71
2022/06/25 02:49:23;;;;;;;41.25;34.92;;;;;;;16.45;100.00;100871.84;2095089;28;20244;-71
2022/06/25 02:50:25;;;;;;;36.72;32.95;;;;;;;16.45;100.00;100872.72;2078009;28;20037;-71
2022/06/25 02:51:27;;;;;;;39.85;35.58;;;;;;;16.46;100.00;100879.88;2071969;28;20050;-71
2022/06/25 02:52:29;;;;;;;38.80;34.50;;;;;;;16.45;100.00;100875.41;2088233;28;20195;-71
2022/06/25 02:53:31;;;;;;;37.72;33.65;;;;;;;16.47;100.00;100875.34;2094506;28;20616;-71
2022/06/25 02:54:37;;;;;;;40.30;33.05;;;;;;;16.46;100.00;100884.41;2095281;28;20045;-71
2022/06/25 02:59:42;;;;;;;35.50;30.83;;;;;;;16.44;100.00;100875.47;2089052;28;20041;-71
2022/06/25 03:00:44;;;;;;;35.92;32.28;;;;;;;16.43;100.00;100882.72;2088570;28;20697;-71
2022/06/25 03:01:47;;;;;;;32.67;29.40;;;;;;;16.41;100.00;100885.50;2095655;28;20045;-71
2022/06/25 03:02:51;;;;;;;31.63;28.42;;;;;;;16.42;100.00;100895.38;2095049;28;21025;-71
2022/06/25 03:03:54;;;;;;;33.13;29.70;;;;;;;16.40;100.00;100890.97;2095255;28;20021;-71
2022/06/25 03:04:56;;;;;;;30.45;27.42;;;;;;;16.39;100.00;100887.41;2095275;28;20037;-71
2022/06/25 03:05:58;;;;;;;34.13;30.50;;;;;;;16.40;100.00;100899.97;2095056;28;20064;-71
2022/06/25 03:07:04;;;;;;;31.83;28.63;;;;;;;16.40;100.00;100891.88;2095062;28;20037;-71
2022/06/25 03:08:06;;;;;;;30.42;27.42;;;;;;;16.40;100.00;100891.88;2111831;28;20044;-71
2022/06/25 03:09:08;;;;;;;29.00;26.08;;;;;;;16.43;100.00;100898.94;2112037;28;20098;-71
2022/06/25 03:10:11;;;;;;;31.98;28.67;;;;;;;16.42;100.00;100894.50;2095150;28;20109;-71
2022/06/25 03:11:14;;;;;;;31.92;27.67;;;;;;;16.42;100.00;100894.50;2095576;28;20041;-72
2022/06/25 03:12:16;;;;;;;29.85;26.83;;;;;;;16.41;100.00;100901.72;2094933;28;20041;-71
2022/06/25 03:13:26;;;;;;;30.17;27.27;;;;;;;16.41;100.00;100895.44;2096057;28;20083;-71
2022/06/25 03:14:29;;;;;;;28.40;25.50;;;;;;;16.39;100.00;100900.91;2095669;28;20037;-71
2022/06/25 03:15:32;;;;;;;28.77;25.90;;;;;;;16.39;100.00;100895.50;2087252;28;20042;-71
2022/06/25 03:16:34;;;;;;;28.77;25.90;;;;;;;16.38;100.00;100899.19;2087528;28;20045;-71
2022/06/25 03:17:39;;;;;;;28.75;25.92;;;;;;;16.38;100.00;100903.69;2087399;28;20146;-71
2022/06/25 03:19:01;;;;;;;27.08;24.38;;;;;;;16.35;100.00;100893.91;2095345;28;20048;-71
2022/06/25 03:20:20;;;;;;;27.38;24.60;;;;;;;16.35;100.00;100896.63;2095024;28;20954;-71
2022/06/25 03:21:28;;;;;;;26.67;24.00;;;;;;;16.34;100.00;100900.25;2096086;28;20041;-71
2022/06/25 03:22:40;;;;;;;25.15;22.60;;;;;;;16.34;100.00;100896.69;2080195;28;20800;-71
2022/06/25 03:23:42;;;;;;;27.02;24.15;;;;;;;16.35;100.00;100890.34;2071843;28;20045;-71
2022/06/25 03:24:44;;;;;;;23.98;21.77;;;;;;;16.34;100.00;100892.16;2078879;28;20046;-71
2022/06/25 03:25:47;;;;;;;27.08;24.38;;;;;;;16.35;100.00;100893.91;2094252;28;20055;-71
2022/06/25 03:26:49;;;;;;;24.13;21.77;;;;;;;16.34;100.00;100892.16;2087386;28;20156;-71
2022/06/25 03:27:51;;;;;;;22.45;20.30;;;;;;;16.33;100.00;100901.22;2087554;28;20038;-72
2022/06/25 03:28:54;;;;;;;20.75;18.95;;;;;;;16.32;100.00;100906.69;2095247;28;20134;-71
2022/06/25 03:29:57;;;;;;;19.70;17.80;;;;;;;16.29;100.00;100896.88;2095255;28;20068;-71
2022/06/25 03:30:59;;;;;;;22.45;20.33;;;;;;;16.29;100.00;100902.28;2094732;28;20568;-71
2022/06/25 03:32:01;;;;;;;25.38;22.95;;;;;;;16.28;100.00;100897.00;2103942;28;20072;-71
2022/06/25 03:33:35;;;;;;;23.55;21.35;;;;;;;16.24;100.00;100896.25;2069946;28;20109;-71
2022/06/25 03:34:50;;;;;;;24.05;21.65;;;;;;;16.22;100.00;100896.31;2092661;28;20060;-71
2022/06/25 03:35:52;;;;;;;24.65;22.35;;;;;;;16.23;100.00;100897.19;2087615;28;20115;-71
2022/06/25 03:36:56;;;;;;;25.10;22.70;;;;;;;16.22;100.00;100903.53;2086233;28;20049;-71
2022/06/25 03:37:58;;;;;;;22.48;20.25;;;;;;;16.21;100.00;100897.25;2095751;28;20312;-71
2022/06/25 03:39:01;;;;;;;25.10;22.60;;;;;;;16.22;100.00;100903.53;2094872;28;20088;-71
2022/06/25 03:40:04;;;;;;;25.52;23.02;;;;;;;16.22;100.00;100900.81;2088078;28;20045;-71
2022/06/25 03:42:36;;;;;;;27.17;22.08;;;;;;;16.21;100.00;100913.47;2103763;28;20190;-71
2022/06/25 03:43:42;;;;;;;25.85;23.45;;;;;;;16.21;100.00;100912.59;2102628;28;20048;-72
2022/06/25 03:44:44;;;;;;;23.58;21.33;;;;;;;16.20;100.00;100909.03;2095042;28;20045;-71
2022/06/25 03:46:02;;;;;;;24.08;21.58;;;;;;;16.22;100.00;100914.34;2095409;28;20049;-71
2022/06/25 03:47:05;;;;;;;24.45;22.05;;;;;;;16.22;100.00;100911.63;2095011;28;20118;-71
2022/06/25 03:48:08;;;;;;;24.55;22.25;;;;;;;16.22;100.00;100908.94;2095706;28;20089;-71
2022/06/25 03:49:33;;;;;;;24.77;22.17;;;;;;;16.23;100.00;100916.09;2092752;28;20082;-71
2022/06/25 03:50:40;;;;;;;23.98;21.77;;;;;;;16.23;99.80;100911.56;2096501;28;20045;-71
2022/06/25 03:51:42;;;;;;;24.70;22.42;;;;;;;16.23;100.00;100916.09;2087449;28;20874;-71
2022/06/25 03:52:46;;;;;;;25.08;22.75;;;;;;;16.25;100.00;100918.75;2090229;28;20834;-71
2022/06/25 03:53:51;;;;;;;24.90;22.48;;;;;;;16.25;100.00;100925.00;2088686;28;20084;-72
2022/06/25 03:54:53;;;;;;;25.33;22.92;;;;;;;16.25;99.64;100921.44;2080339;28;21234;-71
2022/06/25 03:55:54;;;;;;;24.85;22.55;;;;;;;16.26;99.67;100913.28;2085089;28;20119;-72
2022/06/25 03:57:04;;;;;;;23.73;21.50;;;;;;;16.29;99.80;100920.34;2104654;28;20040;-70
2022/06/25 03:58:31;;;;;;;23.85;21.45;;;;;;;16.33;99.13;100927.34;2101364;28;20905;-71
2022/06/25 03:59:35;;;;;;;20.48;18.63;;;;;;;16.36;99.19;100919.97;2096768;28;21039;-72
2022/06/25 04:00:50;;;;;;;22.45;20.33;;;;;;;16.41;99.25;100922.47;2097049;28;20049;-72
2022/06/25 04:01:54;;;;;;;23.63;21.33;;;;;;;16.51;99.23;100914.78;2088761;28;20096;-72
2022/06/25 04:02:57;;;;;;;22.15;20.05;;;;;;;16.63;98.20;100914.19;2089281;28;20053;-72
2022/06/25 04:04:04;;;;;;;22.27;20.15;;;;;;;16.77;97.99;100921.63;2095646;28;20921;-71
2022/06/25 04:05:06;;;;;;;19.50;17.73;;;;;;;16.90;96.67;100919.22;2089034;28;20045;-72
2022/06/25 04:06:09;;;;;;;22.20;19.92;;;;;;;16.99;96.14;100916.06;2096921;28;20037;-72
2022/06/25 04:07:16;;;;;;;20.65;18.63;;;;;;;17.16;95.79;100917.94;2104880;28;20052;-72
2022/06/25 04:08:20;;;;;;;19.38;17.50;;;;;;;17.34;95.11;100916.09;2089426;28;20041;-72
2022/06/25 04:09:24;;;;;;;18.85;17.08;;;;;;;17.50;94.38;100917.06;2081784;28;20080;-73
2022/06/25 04:10:29;;;;;;;18.45;16.67;;;;;;;17.60;93.15;100914.72;2088199;28;20167;-73
2022/06/25 04:11:37;;;;;;;18.05;16.25;;;;;;;17.91;91.91;100910.44;2084026;28;20135;-72
2022/06/25 04:12:39;;;;;;;18.42;16.67;;;;;;;18.30;89.62;100912.78;2098034;28;20811;-72
2022/06/25 04:13:44;;;;;;;16.35;15.02;;;;;;;18.59;87.79;100918.41;2096124;28;20091;-72
2022/06/25 04:14:48;;;;;;;17.23;15.68;;;;;;;18.74;85.97;100915.78;2088989;28;20052;-72
2022/06/25 04:15:52;;;;;;;15.07;13.77;;;;;;;18.96;86.74;100916.31;2080335;28;20216;-72
2022/06/25 04:17:02;;;;;;;14.60;13.32;;;;;;;19.16;84.03;100922.41;2089959;28;20049;-73
2022/06/25 04:18:10;;;;;;;14.25;12.85;;;;;;;19.36;83.57;100916.66;2104792;28;20053;-72
2022/06/25 04:19:12;;;;;;;14.05;12.60;;;;;;;19.45;82.40;100912.50;2096314;28;20122;-72
2022/06/25 04:20:15;;;;;;;14.95;13.13;;;;;;;19.64;82.67;100917.69;2088041;28;20165;-72
2022/06/25 04:21:17;;;;;;;13.85;12.55;;;;;;;19.56;81.41;100920.88;2088009;28;20037;-72
2022/06/25 04:22:19;;;;;;;15.38;13.73;;;;;;;19.52;81.46;100913.00;2087985;28;20202;-72
2022/06/25 04:23:21;;;;;;;13.60;12.20;;;;;;;19.52;81.86;100918.44;2096883;28;20793;-72
2022/06/25 04:24:26;;;;;;;15.95;14.45;;;;;;;19.44;81.22;100911.63;2095832;28;20135;-72
2022/06/25 04:25:28;;;;;;;13.35;12.15;;;;;;;19.65;80.15;100920.31;2097013;28;20887;-72
2022/06/25 04:26:32;;;;;;;14.80;13.43;;;;;;;19.83;80.51;100910.19;2096375;28;20037;-73
2022/06/25 04:29:05;;;;;;;14.38;13.13;;;;;;;20.64;77.63;100910.53;2082238;28;20151;-73
2022/06/25 04:30:11;;;;;;;14.32;13.07;;;;;;;21.22;74.98;100900.34;2089434;28;20413;-72
2022/06/25 04:31:17;;;;;;;13.57;12.30;;;;;;;21.51;72.34;100903.78;2087184;28;20092;-72
2022/06/25 04:32:19;;;;;;;12.38;11.10;;;;;;;21.95;70.67;100902.53;2088221;28;20038;-72
2022/06/25 04:33:39;;;;;;;12.80;11.45;;;;;;;22.51;67.81;100909.47;2088680;28;20037;-72
2022/06/25 04:34:42;;;;;;;12.05;11.00;;;;;;;22.61;67.58;100911.41;2087642;28;20029;-72
2022/06/25 04:35:44;;;;;;;11.43;10.30;;;;;;;22.91;67.14;100906.47;2096569;28;20822;-72
2022/06/25 04:37:06;;;;;;;11.30;10.20;;;;;;;23.21;64.37;100914.22;2075740;28;20049;-72
2022/06/25 04:38:08;;;;;;;12.20;10.77;;;;;;;23.31;63.50;100911.66;2075103;28;20054;-72
2022/06/25 04:39:12;;;;;;;12.77;11.32;;;;;;;23.35;63.94;100910.44;2089028;28;20053;-72
2022/06/25 04:40:14;;;;;;;11.55;10.55;;;;;;;24.14;62.56;100907.91;2097057;28;20834;-72
2022/06/25 04:41:19;;;;;;;11.20;10.20;;;;;;;24.36;59.58;100907.88;2072124;28;20186;-73
2022/06/25 04:42:24;;;;;;;11.88;10.75;;;;;;;24.41;60.64;100910.25;2073725;28;20200;-72
2022/06/25 04:43:26;;;;;;;10.38;9.50;;;;;;;25.19;58.30;100915.69;2079561;28;20049;-72
2022/06/25 04:44:29;;;;;;;11.43;10.32;;;;;;;25.21;58.27;100920.03;2080346;28;21021;-72
2022/06/25 04:45:31;;;;;;;12.23;11.13;;;;;;;25.39;56.20;100914.88;2087850;28;20130;-72
2022/06/25 04:46:47;;;;;;;12.38;11.20;;;;;;;25.18;56.44;100920.31;2087800;28;20882;-72
2022/06/25 04:47:52;;;;;;;10.80;9.80;;;;;;;25.63;57.23;100919.25;2088531;28;20100;-72
2022/06/25 04:49:12;;;;;;;10.35;9.32;;;;;;;25.61;54.20;100921.25;2093744;28;20053;-73
2022/06/25 04:50:17;;;;;;;10.38;9.48;;;;;;;26.06;55.53;100927.34;2087581;28;20060;-72
2022/06/25 04:51:19;;;;;;;11.93;10.77;;;;;;;26.04;54.05;100923.88;2088327;28;20042;-72
2022/06/25 04:52:22;;;;;;;11.45;10.38;;;;;;;26.31;54.37;100918.78;2087632;28;20101;-73
2022/06/25 04:53:25;;;;;;;10.98;9.98;;;;;;;26.74;52.52;100920.41;2080048;28;20188;-72
2022/06/25 04:54:27;;;;;;;11.07;9.88;;;;;;;26.97;51.50;100919.16;2080999;28;20041;-72
2022/06/25 04:55:39;;;;;;;10.57;9.68;;;;;;;26.63;51.31;100929.63;2094802;28;20131;-72
2022/06/25 04:56:42;;;;;;;10.45;9.55;;;;;;;27.02;51.19;100927.81;2094533;28;20092;-71
2022/06/25 04:57:46;;;;;;;11.27;10.38;;;;;;;27.00;50.69;100923.50;2088153;28;20042;-72
2022/06/25 04:59:06;;;;;;;11.68;10.52;;;;;;;26.83;50.25;100927.81;2096733;28;20041;-72